Wednesday, October 22, 2014, 8:35 PM EDT

KNHK, Nas Patuxent River Md

Location: Patuxent River, MD, United States Lat: 38.3
Local Time: 8:35 PM EDT ( 0:35 GMT) Lon: -76.4
Time Zone: US/Eastern Elev: 39 ft

Show me the last for .
Show Decoded

2014-10-22 20:24 METAR KNHK 230024Z 33018G26KT 10SM FEW015 SCT020 OVC034 12/09 A2989 RMK AO2 PK
                 WND 33026/0021 RAE24 P0000 T01220094 =
2014-10-22 19:52 METAR KNHK 222352Z 32020KT 10SM -RA SCT015 BKN020 OVC030 12/10 A2989 RMK AO2 PK
                 WND 33026/2300 SLP123 P0000 60019 T01220100 10128 20122 51014 =
2014-10-22 18:52 METAR KNHK 222252Z 33020G26KT 10SM -RA BKN016 OVC026 12/10 A2988 RMK AO2 PK WND
                 32031/2240 SLP119 P0002 T01220100 =
2014-10-22 17:52 METAR KNHK 222152Z 33023G29KT 6SM -RA BR BKN016 OVC023 12/10 A2987 RMK AO2 PK
                 WND 33029/2137 SLP116 P0001 T01220100 =
2014-10-22 16:52 METAR KNHK 222052Z 33018G29KT 10SM -RA BKN015 OVC020 13/11 A2985 RMK AO2 PK WND
                 32031/2001 SLP109 P0001 60016 T01280106 53004 =
2014-10-22 14:52 METAR KNHK 221852Z 33021KT 4SM -RA BR FEW008 BKN012 OVC025 13/11 A2984 RMK AO2
                 PK WND 32029/1816 SLP105 P0008 T01280111 =
2014-10-22 13:52 METAR KNHK 221752Z 33021G24KT 3SM -RA BR FEW008 BKN014 OVC020 13/11 A2984 RMK
                 AO2 PK WND 33026/1723 SLP105 P0004 60044 T01280111 10133 20128 58001 =
2014-10-22 12:52 METAR KNHK 221652Z 33018KT 7SM -RA SCT008 BKN010 OVC015 13/11 A2985 RMK AO2
                 SLP110 P0002 T01280111 =
2014-10-22 12:19 METAR KNHK 221619Z 34015KT 7SM -RA SCT008 BKN010 OVC015 13/11 A2986 RMK AO2
                 P0001 T01280111 =
2014-10-22 11:52 METAR KNHK 221552Z 33018G24KT 3SM -RA BR BKN009 OVC014 13/12 A2986 RMK AO2
                 SLP111 T2 SET P0014 T01280117 =
2014-10-22 11:27 METAR KNHK 221527Z 33017KT 3SM -RA BR BKN009 OVC014 13/12 A2986 RMK AO2 T2 SET
                 P0010 T01280117 =
2014-10-22 10:52 METAR KNHK 221452Z 34013KT 3SM -RA BR SCT008 BKN010 OVC014 13/11 A2984 RMK AO2
                 SLP106 T2 SET P0010 60024 T01280111 50004 =
2014-10-22 09:52 METAR KNHK 221352Z 35007KT 3SM -RA BR SCT009 BKN012 OVC019 13/11 A2985 RMK AO2
                 SLP108 T2 SET P0013 T01280111 =
2014-10-22 09:34 METAR KNHK 221334Z 35011KT 3SM -RA BR SCT009 BKN012 OVC019 13/11 A2985 RMK AO2
                 T2 SET P0007 T01280111 =
2014-10-22 09:21 METAR KNHK 221321Z 34015KT 2SM RA BR SCT009 BKN012 OVC019 13/11 A2985 RMK AO2 T2
                 SET P0002 T01280111 =
2014-10-22 08:52 METAR KNHK 221252Z 33015KT 8SM -RA FEW009 BKN012 OVC019 13/11 A2984 RMK AO2
                 SLP105 T2 SET P0001 T01280111 =
2014-10-22 07:52 METAR KNHK 221152Z 34008KT 7SM -RA SCT009 BKN013 OVC023 13/11 A2983 RMK AO2
                 RAE08B44 SLP102 P0002 60002 70019 T01280111 10139 20128 51005 =
2014-10-22 06:52 METAR KNHK 221052Z 33009KT 6SM -RA BR SCT009 BKN012 OVC019 13/11 A2983 RMK AO2
                 RAB40 SLP102 P0000 T01280111 =
2014-10-22 05:52 METAR KNHK 220952Z 33016KT 9SM FEW008 BKN011 OVC039 13/11 A2982 RMK AO2 SLP099
                 T01280106 =
2014-10-22 05:38 METAR KNHK 220938Z AUTO 33014KT 9SM SCT009 BKN033 OVC040 13/11 A2982 RMK AO2
                 T01280111 =
2014-10-22 05:24 METAR KNHK 220924Z AUTO 33014KT 9SM SCT008 BKN027 OVC044 13/11 A2982 RMK AO2
                 T01280106 =
2014-10-22 05:15 METAR KNHK 220915Z AUTO 33012KT 10SM BKN009 BKN037 OVC044 13/11 A2982 RMK AO2
                 T01280111 =
2014-10-22 05:02 METAR KNHK 220902Z AUTO 33011KT 10SM SCT009 BKN024 OVC045 13/11 A2982 RMK AO2
                 T01280106 =
2014-10-22 04:52 METAR KNHK 220852Z AUTO 33010KT 10SM BKN010 BKN026 OVC034 13/11 A2982 RMK AO2
                 SLP097 T01280106 55008 =
2014-10-22 04:46 METAR KNHK 220846Z AUTO 33012KT 10SM BKN009 BKN024 OVC029 13/11 A2981 RMK AO2 =
2014-10-22 04:31 METAR KNHK 220831Z AUTO 32013KT 10SM FEW012 BKN029 OVC036 13/11 A2981 RMK AO2
                 CIG 015 RY24 T01280106 =
2014-10-22 04:24 METAR KNHK 220824Z AUTO 33012KT 10SM FEW009 SCT025 OVC030 13/11 A2981 RMK AO2
                 CIG 017 RY24 T01280106 =
2014-10-22 03:52 METAR KNHK 220752Z AUTO 33015KT 10SM SCT016 BKN025 OVC030 13/11 A2981 RMK AO2
                 CIG 015 RY24 SLP093 T01280106 =
2014-10-22 03:38 METAR KNHK 220738Z AUTO 33015KT 10SM SCT014 BKN020 OVC026 13/11 A2982 RMK AO2
                 CIG 015 RY24 T01280111 =
2014-10-22 03:29 METAR KNHK 220729Z AUTO 32012KT 10SM FEW009 BKN014 OVC026 13/11 A2982 RMK AO2
                 T01280111 =
2014-10-22 03:19 METAR KNHK 220719Z AUTO 32010KT 10SM FEW013 BKN019 OVC026 13/11 A2982 RMK AO2
                 CIG 014 RY24 T01280111 
2014-10-22 02:52 METAR KNHK 220652Z AUTO 32009KT 10SM BKN014 OVC020 13/11 A2983 RMK AO2 SLP100
                 T01330111 =
2014-10-22 01:52 METAR KNHK 220552Z AUTO 34011KT 10SM BKN010 OVC015 13/11 A2984 RMK AO2 SLP105
                 60001 T01330111 10144 20128 58011 =
2014-10-22 01:35 METAR KNHK 220535Z AUTO 33010KT 10SM BKN011 OVC016 13/12 A2985 RMK AO2 T01330117
                 =
2014-10-22 01:25 METAR KNHK 220525Z AUTO 33009KT 10SM SCT010 BKN015 OVC021 13/12 A2985 RMK AO2
                 T01330117 =
2014-10-22 01:15 METAR KNHK 220515Z AUTO 33011KT 10SM SCT010 BKN014 OVC020 13/12 A2984 RMK AO2
                 T01330117 =
2014-10-22 00:52 METAR KNHK 220452Z AUTO 34010KT 10SM SCT010 OVC017 13/12 A2985 RMK AO2 SLP108
                 T01330117 402060128 =
2014-10-22 00:35 METAR KNHK 220435Z AUTO 32010KT 10SM BKN010 BKN016 13/12 A2986 RMK AO2 T01330117
                 =
2014-10-22 00:23 METAR KNHK 220423Z AUTO 34012KT 10SM SCT010 BKN016 13/11 A2985 RMK AO2 T01280111
                 =
2014-10-21 23:52 METAR KNHK 220352Z AUTO 33012KT 10SM BKN011 BKN022 OVC120 13/11 A2987 RMK AO2
                 RAE15 SLP115 P0000 T01330111 =
2014-10-21 22:52 METAR KNHK 220252Z 35011KT 10SM -RA FEW009 SCT046 OVC110 13/11 A2987 RMK AO2
                 RAB04E18B44 SLP115 P0001 60001 T01330111 50010 =
2014-10-21 22:10 METAR KNHK 220210Z 31012KT 10SM -RA FEW009 SCT013 OVC046 13/11 A2988 RMK AO2
                 RAB04 P0000 T01330111 =
2014-10-21 21:52 METAR KNHK 220152Z 28010KT 10SM FEW009 BKN012 OVC050 14/12 A2989 RMK AO2 SLP122
                 T01390117 =
2014-10-21 21:41 METAR KNHK 220141Z 28010KT 10SM BKN010 OVC050 14/12 A2989 RMK AO2 T01390122 =
2014-10-21 20:52 METAR KNHK 220052Z 30012KT 10SM SCT009 BKN050 OVC060 14/12 A2985 RMK AO2 RAE31
                 SLP110 P0000 T01440122 =

Support USWX by starting your Amazon purchase here.